sensor_id;sensor_type;location;lat;lon;timestamp;P1;durP1;ratioP1;P2;durP2;ratioP2
20454;SDS011;10386;54.314;10.022;2022-12-20T00:01:25;26.50;;;12.80;;
20454;SDS011;10386;54.314;10.022;2022-12-20T00:03:54;25.50;;;13.13;;
20454;SDS011;10386;54.314;10.022;2022-12-20T00:06:24;25.87;;;13.07;;
20454;SDS011;10386;54.314;10.022;2022-12-20T00:08:55;25.83;;;12.27;;
20454;SDS011;10386;54.314;10.022;2022-12-20T00:11:24;22.40;;;12.33;;
20454;SDS011;10386;54.314;10.022;2022-12-20T00:13:52;23.73;;;11.97;;
20454;SDS011;10386;54.314;10.022;2022-12-20T00:16:20;22.70;;;12.83;;
20454;SDS011;10386;54.314;10.022;2022-12-20T00:18:53;22.57;;;11.63;;
20454;SDS011;10386;54.314;10.022;2022-12-20T00:21:26;24.37;;;13.17;;
20454;SDS011;10386;54.314;10.022;2022-12-20T00:23:53;23.87;;;12.33;;
20454;SDS011;10386;54.314;10.022;2022-12-20T00:26:22;25.43;;;12.40;;
20454;SDS011;10386;54.314;10.022;2022-12-20T00:28:53;19.83;;;11.87;;
20454;SDS011;10386;54.314;10.022;2022-12-20T00:31:20;23.20;;;12.40;;
20454;SDS011;10386;54.314;10.022;2022-12-20T00:33:49;22.00;;;11.60;;
20454;SDS011;10386;54.314;10.022;2022-12-20T00:36:17;22.47;;;11.27;;
20454;SDS011;10386;54.314;10.022;2022-12-20T00:38:46;26.27;;;12.77;;
20454;SDS011;10386;54.314;10.022;2022-12-20T00:41:14;25.70;;;12.67;;
20454;SDS011;10386;54.314;10.022;2022-12-20T00:43:42;26.13;;;11.40;;
20454;SDS011;10386;54.314;10.022;2022-12-20T00:46:10;21.70;;;10.80;;
20454;SDS011;10386;54.314;10.022;2022-12-20T00:48:37;23.67;;;11.87;;
20454;SDS011;10386;54.314;10.022;2022-12-20T00:51:11;25.77;;;11.80;;
20454;SDS011;10386;54.314;10.022;2022-12-20T00:53:40;22.53;;;10.90;;
20454;SDS011;10386;54.314;10.022;2022-12-20T00:56:08;21.40;;;11.63;;
20454;SDS011;10386;54.314;10.022;2022-12-20T00:58:37;23.03;;;11.63;;
20454;SDS011;10386;54.314;10.022;2022-12-20T01:01:05;21.73;;;11.07;;
20454;SDS011;10386;54.314;10.022;2022-12-20T01:03:39;21.10;;;11.33;;
20454;SDS011;10386;54.314;10.022;2022-12-20T01:06:06;23.40;;;12.23;;
20454;SDS011;10386;54.314;10.022;2022-12-20T01:08:33;21.83;;;11.43;;
20454;SDS011;10386;54.314;10.022;2022-12-20T01:11:19;22.00;;;11.23;;
20454;SDS011;10386;54.314;10.022;2022-12-20T01:13:48;23.53;;;11.43;;
20454;SDS011;10386;54.314;10.022;2022-12-20T01:16:18;23.17;;;11.23;;
20454;SDS011;10386;54.314;10.022;2022-12-20T01:18:56;19.43;;;11.33;;
20454;SDS011;10386;54.314;10.022;2022-12-20T01:21:23;19.13;;;10.63;;
20454;SDS011;10386;54.314;10.022;2022-12-20T01:23:51;20.93;;;11.00;;
20454;SDS011;10386;54.314;10.022;2022-12-20T01:26:19;27.27;;;11.00;;
20454;SDS011;10386;54.314;10.022;2022-12-20T01:28:48;19.97;;;10.90;;
20454;SDS011;10386;54.314;10.022;2022-12-20T01:31:19;21.03;;;10.77;;
20454;SDS011;10386;54.314;10.022;2022-12-20T01:33:46;20.60;;;10.77;;
20454;SDS011;10386;54.314;10.022;2022-12-20T01:36:18;22.50;;;11.77;;
20454;SDS011;10386;54.314;10.022;2022-12-20T01:38:54;24.43;;;10.67;;
20454;SDS011;10386;54.314;10.022;2022-12-20T01:41:25;27.43;;;12.20;;
20454;SDS011;10386;54.314;10.022;2022-12-20T01:43:54;23.27;;;12.20;;
20454;SDS011;10386;54.314;10.022;2022-12-20T01:46:30;23.23;;;11.03;;
20454;SDS011;10386;54.314;10.022;2022-12-20T01:49:01;22.77;;;11.37;;
20454;SDS011;10386;54.314;10.022;2022-12-20T01:51:33;24.33;;;11.90;;
20454;SDS011;10386;54.314;10.022;2022-12-20T01:54:09;23.73;;;11.37;;
20454;SDS011;10386;54.314;10.022;2022-12-20T01:56:42;23.17;;;12.33;;
20454;SDS011;10386;54.314;10.022;2022-12-20T01:59:14;27.30;;;12.03;;
20454;SDS011;10386;54.314;10.022;2022-12-20T02:01:41;27.50;;;11.97;;
20454;SDS011;10386;54.314;10.022;2022-12-20T02:04:10;24.67;;;11.10;;
20454;SDS011;10386;54.314;10.022;2022-12-20T02:06:37;23.57;;;12.00;;
20454;SDS011;10386;54.314;10.022;2022-12-20T02:09:04;21.57;;;10.83;;
20454;SDS011;10386;54.314;10.022;2022-12-20T02:11:50;21.13;;;11.63;;
20454;SDS011;10386;54.314;10.022;2022-12-20T02:14:49;21.50;;;11.23;;
20454;SDS011;10386;54.314;10.022;2022-12-20T02:17:26;24.07;;;11.17;;
20454;SDS011;10386;54.314;10.022;2022-12-20T02:25:36;23.23;;;11.50;;
20454;SDS011;10386;54.314;10.022;2022-12-20T02:30:51;18.37;;;11.13;;
20454;SDS011;10386;54.314;10.022;2022-12-20T02:33:20;22.27;;;12.93;;
20454;SDS011;10386;54.314;10.022;2022-12-20T02:35:50;27.57;;;11.40;;
20454;SDS011;10386;54.314;10.022;2022-12-20T02:40:59;20.93;;;11.80;;
20454;SDS011;10386;54.314;10.022;2022-12-20T02:43:30;22.63;;;10.70;;
20454;SDS011;10386;54.314;10.022;2022-12-20T02:46:18;22.23;;;10.93;;
20454;SDS011;10386;54.314;10.022;2022-12-20T02:48:46;22.83;;;11.47;;
20454;SDS011;10386;54.314;10.022;2022-12-20T02:51:14;24.33;;;12.17;;
20454;SDS011;10386;54.314;10.022;2022-12-20T02:53:43;22.67;;;11.40;;
20454;SDS011;10386;54.314;10.022;2022-12-20T02:59:03;24.00;;;11.30;;
20454;SDS011;10386;54.314;10.022;2022-12-20T03:01:38;29.07;;;12.03;;
20454;SDS011;10386;54.314;10.022;2022-12-20T03:04:10;24.70;;;12.47;;
20454;SDS011;10386;54.314;10.022;2022-12-20T03:06:39;27.53;;;12.07;;
20454;SDS011;10386;54.314;10.022;2022-12-20T03:09:30;23.50;;;11.90;;
20454;SDS011;10386;54.314;10.022;2022-12-20T03:11:58;21.23;;;11.67;;
20454;SDS011;10386;54.314;10.022;2022-12-20T03:14:25;24.73;;;12.47;;
20454;SDS011;10386;54.314;10.022;2022-12-20T03:16:52;28.83;;;13.53;;
20454;SDS011;10386;54.314;10.022;2022-12-20T03:19:19;24.47;;;12.23;;
20454;SDS011;10386;54.314;10.022;2022-12-20T03:21:46;25.87;;;13.47;;
20454;SDS011;10386;54.314;10.022;2022-12-20T03:24:13;23.83;;;12.90;;
20454;SDS011;10386;54.314;10.022;2022-12-20T03:26:40;25.33;;;13.90;;
20454;SDS011;10386;54.314;10.022;2022-12-20T03:29:07;27.53;;;12.47;;
20454;SDS011;10386;54.314;10.022;2022-12-20T03:31:34;25.70;;;13.47;;
20454;SDS011;10386;54.314;10.022;2022-12-20T03:34:02;26.40;;;13.20;;
20454;SDS011;10386;54.314;10.022;2022-12-20T03:36:29;22.27;;;12.50;;
20454;SDS011;10386;54.314;10.022;2022-12-20T03:38:56;26.40;;;13.23;;
20454;SDS011;10386;54.314;10.022;2022-12-20T03:41:23;29.37;;;13.83;;
20454;SDS011;10386;54.314;10.022;2022-12-20T03:43:51;22.83;;;13.63;;
20454;SDS011;10386;54.314;10.022;2022-12-20T03:46:18;27.83;;;13.43;;
20454;SDS011;10386;54.314;10.022;2022-12-20T03:48:45;25.10;;;12.97;;
20454;SDS011;10386;54.314;10.022;2022-12-20T03:51:11;28.90;;;13.23;;
20454;SDS011;10386;54.314;10.022;2022-12-20T03:53:38;30.10;;;13.30;;
20454;SDS011;10386;54.314;10.022;2022-12-20T03:56:05;31.87;;;13.83;;
20454;SDS011;10386;54.314;10.022;2022-12-20T03:58:32;28.93;;;13.13;;
20454;SDS011;10386;54.314;10.022;2022-12-20T04:00:59;24.63;;;12.77;;
20454;SDS011;10386;54.314;10.022;2022-12-20T04:03:25;26.70;;;13.13;;
20454;SDS011;10386;54.314;10.022;2022-12-20T04:05:52;24.87;;;13.67;;
20454;SDS011;10386;54.314;10.022;2022-12-20T04:08:19;22.80;;;12.67;;
20454;SDS011;10386;54.314;10.022;2022-12-20T04:10:46;26.17;;;13.17;;
20454;SDS011;10386;54.314;10.022;2022-12-20T04:13:31;34.97;;;14.43;;
20454;SDS011;10386;54.314;10.022;2022-12-20T04:15:58;27.47;;;13.73;;
20454;SDS011;10386;54.314;10.022;2022-12-20T04:18:26;25.80;;;13.87;;
20454;SDS011;10386;54.314;10.022;2022-12-20T04:20:53;24.97;;;13.20;;
20454;SDS011;10386;54.314;10.022;2022-12-20T04:23:20;22.87;;;13.13;;
20454;SDS011;10386;54.314;10.022;2022-12-20T04:25:47;27.93;;;13.30;;
20454;SDS011;10386;54.314;10.022;2022-12-20T04:28:14;27.37;;;13.50;;
20454;SDS011;10386;54.314;10.022;2022-12-20T04:30:40;26.30;;;13.13;;
20454;SDS011;10386;54.314;10.022;2022-12-20T04:33:07;30.77;;;12.93;;
20454;SDS011;10386;54.314;10.022;2022-12-20T04:35:35;26.53;;;13.30;;
20454;SDS011;10386;54.314;10.022;2022-12-20T04:38:02;24.03;;;11.93;;
20454;SDS011;10386;54.314;10.022;2022-12-20T04:40:29;22.33;;;12.07;;
20454;SDS011;10386;54.314;10.022;2022-12-20T04:42:56;22.63;;;12.33;;
20454;SDS011;10386;54.314;10.022;2022-12-20T04:45:23;24.33;;;12.70;;
20454;SDS011;10386;54.314;10.022;2022-12-20T04:47:50;23.87;;;12.27;;
20454;SDS011;10386;54.314;10.022;2022-12-20T04:50:16;28.33;;;12.60;;
20454;SDS011;10386;54.314;10.022;2022-12-20T04:52:44;23.60;;;12.13;;
20454;SDS011;10386;54.314;10.022;2022-12-20T04:55:30;23.70;;;13.17;;
20454;SDS011;10386;54.314;10.022;2022-12-20T04:58:01;22.03;;;11.80;;
20454;SDS011;10386;54.314;10.022;2022-12-20T05:00:33;28.70;;;12.70;;
20454;SDS011;10386;54.314;10.022;2022-12-20T05:03:00;26.43;;;12.27;;
20454;SDS011;10386;54.314;10.022;2022-12-20T05:05:27;27.53;;;12.17;;
20454;SDS011;10386;54.314;10.022;2022-12-20T05:07:54;22.87;;;12.27;;
20454;SDS011;10386;54.314;10.022;2022-12-20T05:10:21;27.33;;;12.33;;
20454;SDS011;10386;54.314;10.022;2022-12-20T05:12:48;24.97;;;11.20;;
20454;SDS011;10386;54.314;10.022;2022-12-20T05:15:15;24.97;;;11.83;;
20454;SDS011;10386;54.314;10.022;2022-12-20T05:17:42;25.27;;;12.20;;
20454;SDS011;10386;54.314;10.022;2022-12-20T05:20:10;19.97;;;11.20;;
20454;SDS011;10386;54.314;10.022;2022-12-20T05:22:37;23.83;;;11.80;;
20454;SDS011;10386;54.314;10.022;2022-12-20T05:25:22;22.30;;;11.23;;
20454;SDS011;10386;54.314;10.022;2022-12-20T05:28:07;22.53;;;10.93;;
20454;SDS011;10386;54.314;10.022;2022-12-20T05:30:34;23.73;;;12.50;;
20454;SDS011;10386;54.314;10.022;2022-12-20T05:33:01;23.43;;;11.87;;
20454;SDS011;10386;54.314;10.022;2022-12-20T05:35:28;22.03;;;10.43;;
20454;SDS011;10386;54.314;10.022;2022-12-20T05:37:55;24.50;;;11.87;;
20454;SDS011;10386;54.314;10.022;2022-12-20T05:40:21;23.60;;;11.13;;
20454;SDS011;10386;54.314;10.022;2022-12-20T05:42:48;24.43;;;12.97;;
20454;SDS011;10386;54.314;10.022;2022-12-20T05:45:15;25.10;;;11.47;;
20454;SDS011;10386;54.314;10.022;2022-12-20T05:47:41;20.53;;;11.20;;
20454;SDS011;10386;54.314;10.022;2022-12-20T05:50:09;17.47;;;10.77;;
20454;SDS011;10386;54.314;10.022;2022-12-20T05:52:46;25.70;;;11.67;;
20454;SDS011;10386;54.314;10.022;2022-12-20T05:55:13;20.47;;;10.90;;
20454;SDS011;10386;54.314;10.022;2022-12-20T05:57:39;26.53;;;11.80;;
20454;SDS011;10386;54.314;10.022;2022-12-20T06:00:06;23.60;;;11.23;;
20454;SDS011;10386;54.314;10.022;2022-12-20T06:02:34;23.53;;;11.77;;
20454;SDS011;10386;54.314;10.022;2022-12-20T06:05:01;23.90;;;12.03;;
20454;SDS011;10386;54.314;10.022;2022-12-20T06:07:28;21.37;;;12.10;;
20454;SDS011;10386;54.314;10.022;2022-12-20T06:09:55;21.30;;;11.40;;
20454;SDS011;10386;54.314;10.022;2022-12-20T06:12:21;23.10;;;11.07;;
20454;SDS011;10386;54.314;10.022;2022-12-20T06:14:49;25.33;;;11.50;;
20454;SDS011;10386;54.314;10.022;2022-12-20T06:17:16;29.07;;;11.60;;
20454;SDS011;10386;54.314;10.022;2022-12-20T06:19:45;21.47;;;10.33;;
20454;SDS011;10386;54.314;10.022;2022-12-20T06:22:12;22.40;;;10.90;;
20454;SDS011;10386;54.314;10.022;2022-12-20T06:24:39;22.93;;;11.10;;
20454;SDS011;10386;54.314;10.022;2022-12-20T06:30:05;17.20;;;10.80;;
20454;SDS011;10386;54.314;10.022;2022-12-20T06:32:33;22.50;;;11.43;;
20454;SDS011;10386;54.314;10.022;2022-12-20T06:35:00;24.50;;;11.23;;
20454;SDS011;10386;54.314;10.022;2022-12-20T06:37:27;22.93;;;11.17;;
20454;SDS011;10386;54.314;10.022;2022-12-20T06:39:53;21.83;;;11.80;;
20454;SDS011;10386;54.314;10.022;2022-12-20T06:42:20;19.03;;;10.00;;
20454;SDS011;10386;54.314;10.022;2022-12-20T06:44:47;21.67;;;11.33;;
20454;SDS011;10386;54.314;10.022;2022-12-20T06:47:14;21.90;;;10.83;;
20454;SDS011;10386;54.314;10.022;2022-12-20T06:49:40;23.27;;;11.50;;
20454;SDS011;10386;54.314;10.022;2022-12-20T06:52:07;23.30;;;11.60;;
20454;SDS011;10386;54.314;10.022;2022-12-20T06:54:34;27.23;;;11.80;;
20454;SDS011;10386;54.314;10.022;2022-12-20T06:57:00;26.47;;;11.80;;
20454;SDS011;10386;54.314;10.022;2022-12-20T06:59:27;18.83;;;10.50;;
20454;SDS011;10386;54.314;10.022;2022-12-20T07:01:54;20.50;;;10.90;;
20454;SDS011;10386;54.314;10.022;2022-12-20T07:04:21;25.20;;;11.60;;
20454;SDS011;10386;54.314;10.022;2022-12-20T07:06:48;23.47;;;10.67;;
20454;SDS011;10386;54.314;10.022;2022-12-20T07:09:15;22.13;;;11.17;;
20454;SDS011;10386;54.314;10.022;2022-12-20T07:11:42;21.37;;;9.93;;
20454;SDS011;10386;54.314;10.022;2022-12-20T07:14:09;26.07;;;11.77;;
20454;SDS011;10386;54.314;10.022;2022-12-20T07:16:36;23.00;;;10.93;;
20454;SDS011;10386;54.314;10.022;2022-12-20T07:19:03;21.53;;;10.40;;
20454;SDS011;10386;54.314;10.022;2022-12-20T07:21:30;17.20;;;10.30;;
20454;SDS011;10386;54.314;10.022;2022-12-20T07:23:57;19.37;;;10.80;;
20454;SDS011;10386;54.314;10.022;2022-12-20T07:26:23;22.43;;;10.67;;
20454;SDS011;10386;54.314;10.022;2022-12-20T07:28:50;19.37;;;9.63;;
20454;SDS011;10386;54.314;10.022;2022-12-20T07:31:17;17.27;;;10.33;;
20454;SDS011;10386;54.314;10.022;2022-12-20T07:33:43;17.63;;;10.10;;
20454;SDS011;10386;54.314;10.022;2022-12-20T07:36:10;20.80;;;10.40;;
20454;SDS011;10386;54.314;10.022;2022-12-20T07:38:38;16.77;;;9.73;;
20454;SDS011;10386;54.314;10.022;2022-12-20T07:41:06;18.67;;;9.67;;
20454;SDS011;10386;54.314;10.022;2022-12-20T07:43:38;18.93;;;9.97;;
20454;SDS011;10386;54.314;10.022;2022-12-20T07:46:05;17.67;;;10.03;;
20454;SDS011;10386;54.314;10.022;2022-12-20T07:48:33;19.57;;;10.47;;
20454;SDS011;10386;54.314;10.022;2022-12-20T07:51:24;18.40;;;10.13;;
20454;SDS011;10386;54.314;10.022;2022-12-20T07:53:58;21.00;;;10.50;;
20454;SDS011;10386;54.314;10.022;2022-12-20T07:56:46;23.97;;;10.93;;
20454;SDS011;10386;54.314;10.022;2022-12-20T07:59:19;19.90;;;10.90;;
20454;SDS011;10386;54.314;10.022;2022-12-20T08:01:52;19.80;;;11.27;;
20454;SDS011;10386;54.314;10.022;2022-12-20T08:04:26;22.97;;;11.13;;
20454;SDS011;10386;54.314;10.022;2022-12-20T08:06:54;22.40;;;11.33;;
20454;SDS011;10386;54.314;10.022;2022-12-20T08:09:24;18.20;;;10.63;;
20454;SDS011;10386;54.314;10.022;2022-12-20T08:11:54;19.13;;;10.47;;
20454;SDS011;10386;54.314;10.022;2022-12-20T08:14:21;22.60;;;11.10;;
20454;SDS011;10386;54.314;10.022;2022-12-20T08:16:51;21.47;;;11.80;;
20454;SDS011;10386;54.314;10.022;2022-12-20T08:19:18;24.40;;;11.90;;
20454;SDS011;10386;54.314;10.022;2022-12-20T08:21:45;27.10;;;12.33;;
20454;SDS011;10386;54.314;10.022;2022-12-20T08:24:12;24.13;;;11.17;;
20454;SDS011;10386;54.314;10.022;2022-12-20T08:26:39;26.48;;;13.95;;
20454;SDS011;10386;54.314;10.022;2022-12-20T08:29:07;21.93;;;11.43;;
20454;SDS011;10386;54.314;10.022;2022-12-20T08:31:37;23.53;;;11.67;;
20454;SDS011;10386;54.314;10.022;2022-12-20T08:34:11;19.90;;;11.27;;
20454;SDS011;10386;54.314;10.022;2022-12-20T08:36:37;20.47;;;11.33;;
20454;SDS011;10386;54.314;10.022;2022-12-20T08:39:04;25.77;;;12.23;;
20454;SDS011;10386;54.314;10.022;2022-12-20T08:41:35;19.37;;;11.60;;
20454;SDS011;10386;54.314;10.022;2022-12-20T08:44:04;23.30;;;13.30;;
20454;SDS011;10386;54.314;10.022;2022-12-20T08:46:31;23.63;;;12.93;;
20454;SDS011;10386;54.314;10.022;2022-12-20T08:48:58;25.87;;;13.03;;
20454;SDS011;10386;54.314;10.022;2022-12-20T08:51:25;24.53;;;13.03;;
20454;SDS011;10386;54.314;10.022;2022-12-20T08:53:52;25.37;;;12.27;;
20454;SDS011;10386;54.314;10.022;2022-12-20T08:56:18;23.53;;;13.20;;
20454;SDS011;10386;54.314;10.022;2022-12-20T08:58:45;24.93;;;13.07;;
20454;SDS011;10386;54.314;10.022;2022-12-20T09:01:13;23.07;;;12.07;;
20454;SDS011;10386;54.314;10.022;2022-12-20T09:03:42;21.67;;;11.90;;
20454;SDS011;10386;54.314;10.022;2022-12-20T09:06:11;21.10;;;12.00;;
20454;SDS011;10386;54.314;10.022;2022-12-20T09:08:40;20.30;;;11.97;;
20454;SDS011;10386;54.314;10.022;2022-12-20T09:11:08;26.13;;;11.87;;
20454;SDS011;10386;54.314;10.022;2022-12-20T09:13:38;21.10;;;11.60;;
20454;SDS011;10386;54.314;10.022;2022-12-20T09:16:10;18.40;;;11.50;;
20454;SDS011;10386;54.314;10.022;2022-12-20T09:18:39;20.53;;;10.33;;
20454;SDS011;10386;54.314;10.022;2022-12-20T09:21:06;20.77;;;11.13;;
20454;SDS011;10386;54.314;10.022;2022-12-20T09:23:35;17.10;;;9.77;;
20454;SDS011;10386;54.314;10.022;2022-12-20T09:26:03;17.50;;;9.93;;
20454;SDS011;10386;54.314;10.022;2022-12-20T09:28:32;14.80;;;9.60;;
20454;SDS011;10386;54.314;10.022;2022-12-20T09:30:59;16.77;;;10.10;;
20454;SDS011;10386;54.314;10.022;2022-12-20T09:33:31;18.53;;;9.50;;
20454;SDS011;10386;54.314;10.022;2022-12-20T09:35:59;18.80;;;10.37;;
20454;SDS011;10386;54.314;10.022;2022-12-20T09:38:27;15.87;;;9.37;;
20454;SDS011;10386;54.314;10.022;2022-12-20T09:40:55;18.00;;;9.70;;
20454;SDS011;10386;54.314;10.022;2022-12-20T09:43:24;15.47;;;8.60;;
20454;SDS011;10386;54.314;10.022;2022-12-20T09:45:51;16.73;;;8.77;;
20454;SDS011;10386;54.314;10.022;2022-12-20T09:48:22;14.67;;;9.17;;
20454;SDS011;10386;54.314;10.022;2022-12-20T09:56:32;17.80;;;8.80;;
20454;SDS011;10386;54.314;10.022;2022-12-20T09:59:09;14.13;;;8.40;;
20454;SDS011;10386;54.314;10.022;2022-12-20T10:01:42;17.30;;;8.03;;
20454;SDS011;10386;54.314;10.022;2022-12-20T10:04:45;12.77;;;7.93;;
20454;SDS011;10386;54.314;10.022;2022-12-20T10:12:51;13.47;;;7.67;;
20454;SDS011;10386;54.314;10.022;2022-12-20T10:15:42;17.00;;;8.20;;
20454;SDS011;10386;54.314;10.022;2022-12-20T10:21:18;12.07;;;7.30;;
20454;SDS011;10386;54.314;10.022;2022-12-20T10:26:38;14.53;;;8.23;;
20454;SDS011;10386;54.314;10.022;2022-12-20T10:29:05;13.87;;;8.20;;
20454;SDS011;10386;54.314;10.022;2022-12-20T10:31:32;16.30;;;8.13;;
20454;SDS011;10386;54.314;10.022;2022-12-20T10:34:01;17.13;;;8.47;;
20454;SDS011;10386;54.314;10.022;2022-12-20T10:36:32;15.17;;;8.77;;
20454;SDS011;10386;54.314;10.022;2022-12-20T10:39:04;14.10;;;8.73;;
20454;SDS011;10386;54.314;10.022;2022-12-20T10:41:45;15.50;;;9.17;;
20454;SDS011;10386;54.314;10.022;2022-12-20T10:44:24;14.03;;;8.63;;
20454;SDS011;10386;54.314;10.022;2022-12-20T10:46:54;13.07;;;8.20;;
20454;SDS011;10386;54.314;10.022;2022-12-20T10:51:54;15.17;;;8.50;;
20454;SDS011;10386;54.314;10.022;2022-12-20T10:54:36;11.60;;;7.80;;
20454;SDS011;10386;54.314;10.022;2022-12-20T10:59:57;15.53;;;8.30;;
20454;SDS011;10386;54.314;10.022;2022-12-20T11:07:58;12.03;;;8.37;;
20454;SDS011;10386;54.314;10.022;2022-12-20T11:10:45;15.53;;;8.50;;
20454;SDS011;10386;54.314;10.022;2022-12-20T11:13:22;16.23;;;8.73;;
20454;SDS011;10386;54.314;10.022;2022-12-20T11:15:52;13.80;;;8.97;;
20454;SDS011;10386;54.314;10.022;2022-12-20T11:37:35;15.27;;;9.53;;
20454;SDS011;10386;54.314;10.022;2022-12-20T11:43:34;19.43;;;11.67;;
20454;SDS011;10386;54.314;10.022;2022-12-20T11:46:19;16.40;;;9.80;;
20454;SDS011;10386;54.314;10.022;2022-12-20T11:54:46;19.30;;;11.33;;
20454;SDS011;10386;54.314;10.022;2022-12-20T11:57:29;21.67;;;11.03;;
20454;SDS011;10386;54.314;10.022;2022-12-20T12:00:21;24.20;;;13.40;;
20454;SDS011;10386;54.314;10.022;2022-12-20T12:02:50;19.17;;;11.03;;
20454;SDS011;10386;54.314;10.022;2022-12-20T12:08:11;18.17;;;10.73;;
20454;SDS011;10386;54.314;10.022;2022-12-20T12:10:55;15.63;;;8.87;;
20454;SDS011;10386;54.314;10.022;2022-12-20T12:13:26;17.30;;;9.63;;
20454;SDS011;10386;54.314;10.022;2022-12-20T12:16:00;16.37;;;9.27;;
20454;SDS011;10386;54.314;10.022;2022-12-20T12:18:35;15.50;;;8.97;;
20454;SDS011;10386;54.314;10.022;2022-12-20T12:21:06;13.97;;;8.03;;
20454;SDS011;10386;54.314;10.022;2022-12-20T12:26:32;17.60;;;8.47;;
20454;SDS011;10386;54.314;10.022;2022-12-20T12:29:02;15.47;;;8.93;;
20454;SDS011;10386;54.314;10.022;2022-12-20T12:45:15;14.30;;;9.07;;
20454;SDS011;10386;54.314;10.022;2022-12-20T12:48:33;18.27;;;8.50;;
20454;SDS011;10386;54.314;10.022;2022-12-20T12:50:48;17.57;;;8.07;;
20454;SDS011;10386;54.314;10.022;2022-12-20T12:53:35;16.17;;;9.30;;
20454;SDS011;10386;54.314;10.022;2022-12-20T13:04:30;18.63;;;8.23;;
20454;SDS011;10386;54.314;10.022;2022-12-20T13:07:41;14.87;;;7.93;;
20454;SDS011;10386;54.314;10.022;2022-12-20T13:17:53;14.57;;;7.50;;
20454;SDS011;10386;54.314;10.022;2022-12-20T13:20:27;11.33;;;7.37;;
20454;SDS011;10386;54.314;10.022;2022-12-20T13:25:39;15.60;;;8.30;;
20454;SDS011;10386;54.314;10.022;2022-12-20T13:33:42;13.50;;;7.80;;
20454;SDS011;10386;54.314;10.022;2022-12-20T13:46:53;13.13;;;7.37;;
20454;SDS011;10386;54.314;10.022;2022-12-20T13:49:38;12.57;;;7.60;;
20454;SDS011;10386;54.314;10.022;2022-12-20T13:54:40;11.87;;;7.27;;
20454;SDS011;10386;54.314;10.022;2022-12-20T13:57:20;12.60;;;7.60;;
20454;SDS011;10386;54.314;10.022;2022-12-20T13:59:53;11.00;;;7.17;;
20454;SDS011;10386;54.314;10.022;2022-12-20T14:02:35;10.07;;;7.07;;
20454;SDS011;10386;54.314;10.022;2022-12-20T14:07:44;10.83;;;7.07;;
20454;SDS011;10386;54.314;10.022;2022-12-20T14:10:22;10.10;;;7.27;;
20454;SDS011;10386;54.314;10.022;2022-12-20T14:12:51;12.67;;;7.53;;
20454;SDS011;10386;54.314;10.022;2022-12-20T14:15:23;13.77;;;7.20;;
20454;SDS011;10386;54.314;10.022;2022-12-20T14:17:55;13.97;;;6.73;;
20454;SDS011;10386;54.314;10.022;2022-12-20T14:20:28;17.93;;;7.67;;
20454;SDS011;10386;54.314;10.022;2022-12-20T14:23:32;12.17;;;7.07;;
20454;SDS011;10386;54.314;10.022;2022-12-20T14:26:56;12.33;;;6.93;;
20454;SDS011;10386;54.314;10.022;2022-12-20T14:29:08;11.80;;;7.30;;
20454;SDS011;10386;54.314;10.022;2022-12-20T14:31:41;11.27;;;6.43;;
20454;SDS011;10386;54.314;10.022;2022-12-20T14:36:40;15.20;;;7.23;;
20454;SDS011;10386;54.314;10.022;2022-12-20T14:42:19;43.47;;;16.83;;
20454;SDS011;10386;54.314;10.022;2022-12-20T14:44:46;33.50;;;11.73;;
20454;SDS011;10386;54.314;10.022;2022-12-20T14:47:21;11.33;;;7.57;;
20454;SDS011;10386;54.314;10.022;2022-12-20T14:49:53;16.70;;;8.40;;
20454;SDS011;10386;54.314;10.022;2022-12-20T14:52:41;12.57;;;7.63;;
20454;SDS011;10386;54.314;10.022;2022-12-20T14:57:49;11.43;;;7.43;;
20454;SDS011;10386;54.314;10.022;2022-12-20T15:13:34;12.13;;;8.33;;
20454;SDS011;10386;54.314;10.022;2022-12-20T15:16:04;16.77;;;8.93;;
20454;SDS011;10386;54.314;10.022;2022-12-20T15:18:42;16.37;;;9.13;;
20454;SDS011;10386;54.314;10.022;2022-12-20T15:23:43;15.47;;;9.73;;
20454;SDS011;10386;54.314;10.022;2022-12-20T15:26:14;17.07;;;9.60;;
20454;SDS011;10386;54.314;10.022;2022-12-20T15:28:42;18.47;;;10.47;;
20454;SDS011;10386;54.314;10.022;2022-12-20T15:31:09;16.40;;;10.47;;
20454;SDS011;10386;54.314;10.022;2022-12-20T15:33:38;17.17;;;11.03;;
20454;SDS011;10386;54.314;10.022;2022-12-20T15:36:08;19.73;;;10.37;;
20454;SDS011;10386;54.314;10.022;2022-12-20T15:38:41;18.40;;;10.90;;
20454;SDS011;10386;54.314;10.022;2022-12-20T15:41:28;18.87;;;11.23;;
20454;SDS011;10386;54.314;10.022;2022-12-20T15:44:09;19.23;;;10.63;;
20454;SDS011;10386;54.314;10.022;2022-12-20T15:46:40;20.50;;;11.87;;
20454;SDS011;10386;54.314;10.022;2022-12-20T15:49:10;17.83;;;11.00;;
20454;SDS011;10386;54.314;10.022;2022-12-20T15:51:39;28.53;;;14.73;;
20454;SDS011;10386;54.314;10.022;2022-12-20T15:54:23;21.07;;;12.83;;
20454;SDS011;10386;54.314;10.022;2022-12-20T15:56:58;24.23;;;12.47;;
20454;SDS011;10386;54.314;10.022;2022-12-20T15:59:30;25.90;;;13.70;;
20454;SDS011;10386;54.314;10.022;2022-12-20T16:02:21;24.50;;;13.90;;
20454;SDS011;10386;54.314;10.022;2022-12-20T16:04:51;24.53;;;13.70;;
20454;SDS011;10386;54.314;10.022;2022-12-20T16:07:19;21.37;;;13.47;;
20454;SDS011;10386;54.314;10.022;2022-12-20T16:09:45;21.97;;;13.70;;
20454;SDS011;10386;54.314;10.022;2022-12-20T16:12:17;24.83;;;14.90;;
20454;SDS011;10386;54.314;10.022;2022-12-20T16:14:46;21.43;;;13.70;;
20454;SDS011;10386;54.314;10.022;2022-12-20T16:17:14;24.47;;;14.33;;
20454;SDS011;10386;54.314;10.022;2022-12-20T16:19:41;26.20;;;14.63;;
20454;SDS011;10386;54.314;10.022;2022-12-20T16:22:15;25.17;;;14.40;;
20454;SDS011;10386;54.314;10.022;2022-12-20T16:24:44;24.43;;;14.80;;
20454;SDS011;10386;54.314;10.022;2022-12-20T16:27:11;23.63;;;14.47;;
20454;SDS011;10386;54.314;10.022;2022-12-20T16:29:38;26.27;;;15.80;;
20454;SDS011;10386;54.314;10.022;2022-12-20T16:32:16;26.10;;;16.07;;
20454;SDS011;10386;54.314;10.022;2022-12-20T16:34:45;28.67;;;15.73;;
20454;SDS011;10386;54.314;10.022;2022-12-20T16:37:12;26.83;;;15.53;;
20454;SDS011;10386;54.314;10.022;2022-12-20T16:39:40;29.37;;;16.90;;
20454;SDS011;10386;54.314;10.022;2022-12-20T16:42:11;29.30;;;15.80;;
20454;SDS011;10386;54.314;10.022;2022-12-20T16:44:38;28.50;;;16.53;;
20454;SDS011;10386;54.314;10.022;2022-12-20T16:47:08;31.43;;;16.87;;
20454;SDS011;10386;54.314;10.022;2022-12-20T16:49:35;27.33;;;17.40;;
20454;SDS011;10386;54.314;10.022;2022-12-20T16:52:02;25.80;;;16.83;;
20454;SDS011;10386;54.314;10.022;2022-12-20T16:54:31;28.00;;;17.53;;
20454;SDS011;10386;54.314;10.022;2022-12-20T16:56:58;36.57;;;17.27;;
20454;SDS011;10386;54.314;10.022;2022-12-20T16:59:25;29.80;;;17.60;;
20454;SDS011;10386;54.314;10.022;2022-12-20T17:01:52;31.67;;;17.50;;
20454;SDS011;10386;54.314;10.022;2022-12-20T17:04:21;31.67;;;17.60;;
20454;SDS011;10386;54.314;10.022;2022-12-20T17:06:48;32.77;;;18.07;;
20454;SDS011;10386;54.314;10.022;2022-12-20T17:09:16;32.47;;;17.97;;